Aviation Digital Data Service (ADDS)

Output produced by METARs form (0532 UTC 19 March 2019)
found at http://www.aviationweather.gov/metar/data/
 
METAR text: FKYS 190500Z 21003KT 6000 FEW003 SCT006 20/20 Q1014 BECMG BKN006
Conditions at: FKYS (YAOUNDE , CM) observed 0500 UTC 19 March 2019
Temperature: 20.0°C (68°F)
Dewpoint: 20.0°C (68°F) [RH = 100%]
Pressure (altimeter): 29.94 inches Hg (1014.0 mb)
Winds: from the SSW (210 degrees) at 3 MPH (3 knots; 1.5 m/s)
Visibility: 4 miles ( 6 km)
Ceiling: at least 12,000 feet AGL
Clouds: few clouds at 300 feet AGL
scattered clouds at 600 feet AGL
Weather: no significant weather observed at this time

METAR text: FKYS 190400Z 18002KT 6000 FEW003 SCT006 20/20 Q1014 NOSIG
Conditions at: FKYS (YAOUNDE , CM) observed 0400 UTC 19 March 2019
Temperature: 20.0°C (68°F)
Dewpoint: 20.0°C (68°F) [RH = 100%]
Pressure (altimeter): 29.94 inches Hg (1014.0 mb)
Winds: from the S (180 degrees) at 2 MPH (2 knots; 1.0 m/s)
Visibility: 4 miles ( 6 km)
Ceiling: at least 12,000 feet AGL
Clouds: few clouds at 300 feet AGL
scattered clouds at 600 feet AGL
Weather: no significant weather observed at this time

METAR text: FKYS 190300Z 28002KT 6000 FEW003 SCT006 21/20 Q1014 NOSIG
Conditions at: FKYS (YAOUNDE , CM) observed 0300 UTC 19 March 2019
Temperature: 21.0°C (70°F)
Dewpoint: 20.0°C (68°F) [RH = 94%]
Pressure (altimeter): 29.94 inches Hg (1014.0 mb)
Winds: from the W (280 degrees) at 2 MPH (2 knots; 1.0 m/s)
Visibility: 4 miles ( 6 km)
Ceiling: at least 12,000 feet AGL
Clouds: few clouds at 300 feet AGL
scattered clouds at 600 feet AGL
Weather: no significant weather observed at this time

METAR text: FKYS 190200Z 00000KT 6000 FEW003 SCT006 21/21 Q1014 NOSIG
Conditions at: FKYS (YAOUNDE , CM) observed 0200 UTC 19 March 2019
Temperature: 21.0°C (70°F)
Dewpoint: 21.0°C (70°F) [RH = 100%]
Pressure (altimeter): 29.94 inches Hg (1014.0 mb)
Winds: calm
Visibility: 4 miles ( 6 km)
Ceiling: at least 12,000 feet AGL
Clouds: few clouds at 300 feet AGL
scattered clouds at 600 feet AGL
Weather: no significant weather observed at this time

METAR text: FKYS 190100Z VRB02KT 6000 FEW003 SCT006 21/21 Q1014 NOSIG
Conditions at: FKYS (YAOUNDE , CM) observed 0100 UTC 19 March 2019
Temperature: 21.0°C (70°F)
Dewpoint: 21.0°C (70°F) [RH = 100%]
Pressure (altimeter): 29.94 inches Hg (1014.0 mb)
Winds: variable direction winds at 2 MPH (2 knots; 1.0 m/s)
Visibility: 4 miles ( 6 km)
Ceiling: at least 12,000 feet AGL
Clouds: few clouds at 300 feet AGL
scattered clouds at 600 feet AGL
Weather: no significant weather observed at this time

METAR text: FKYS 190000Z VRB01KT 6000 BKN006 21/21 Q1014 NOSIG
Conditions at: FKYS (YAOUNDE , CM) observed 0000 UTC 19 March 2019
Temperature: 21.0°C (70°F)
Dewpoint: 21.0°C (70°F) [RH = 100%]
Pressure (altimeter): 29.94 inches Hg (1014.0 mb)
Winds: variable direction winds at 1 MPH (1 knots; 0.5 m/s)
Visibility: 4 miles ( 6 km)
Ceiling: 600 feet AGL
Clouds: broken clouds at 600 feet AGL
Weather: no significant weather observed at this time

METAR text: FKYS 182300Z VRB02KT 6000 BKN006 FEW016CB 21/21 Q1016 RETS NOSIG
Conditions at: FKYS (YAOUNDE , CM) observed 2300 UTC 18 March 2019
Temperature: 21.0°C (70°F)
Dewpoint: 21.0°C (70°F) [RH = 100%]
Pressure (altimeter): 30.00 inches Hg (1016.0 mb)
Winds: variable direction winds at 2 MPH (2 knots; 1.0 m/s)
Visibility: 4 miles ( 6 km)
Ceiling: 600 feet AGL
Clouds: broken clouds at 600 feet AGL
few clouds at 1600 feet AGL
Weather: no significant weather observed at this time

METAR text: FKYS 182200Z VRB01KT 6000 TS BKN006 FEW016CB 21/21 Q1015 NOSIG
Conditions at: FKYS (YAOUNDE , CM) observed 2200 UTC 18 March 2019
Temperature: 21.0°C (70°F)
Dewpoint: 21.0°C (70°F) [RH = 100%]
Pressure (altimeter): 29.97 inches Hg (1015.0 mb)
Winds: variable direction winds at 1 MPH (1 knots; 0.5 m/s)
Visibility: 4 miles ( 6 km)
Ceiling: 600 feet AGL
Clouds: broken clouds at 600 feet AGL
few clouds at 1600 feet AGL
Weather: TS  (thunderstorm)

METAR text: FKYS 182100Z 21003KT 180V250 6000 TS BKN006 FEW016CB 21/21 Q1015 NOSIG
Conditions at: FKYS (YAOUNDE , CM) observed 2100 UTC 18 March 2019
Temperature: 21.0°C (70°F)
Dewpoint: 21.0°C (70°F) [RH = 100%]
Pressure (altimeter): 29.97 inches Hg (1015.0 mb)
Winds: from the SSW (210 degrees) at 3 MPH (3 knots; 1.5 m/s)
Visibility: 4 miles ( 6 km)
Ceiling: 600 feet AGL
Clouds: broken clouds at 600 feet AGL
few clouds at 1600 feet AGL
Weather: TS  (thunderstorm)

METAR text: FKYS 182000Z 00000KT 6000 TS BKN011 FEW020CB 21/21 Q1014 NOSIG
Conditions at: FKYS (YAOUNDE , CM) observed 2000 UTC 18 March 2019
Temperature: 21.0°C (70°F)
Dewpoint: 21.0°C (70°F) [RH = 100%]
Pressure (altimeter): 29.94 inches Hg (1014.0 mb)
Winds: calm
Visibility: 4 miles ( 6 km)
Ceiling: 1100 feet AGL
Clouds: broken clouds at 1100 feet AGL
few clouds at 2000 feet AGL
Weather: TS  (thunderstorm)

METAR text: FKYS 181900Z 33003KT 270V030 6000 TS BKN013 21/20 Q1014 RERA NOSIG
Conditions at: FKYS (YAOUNDE , CM) observed 1900 UTC 18 March 2019
Temperature: 21.0°C (70°F)
Dewpoint: 20.0°C (68°F) [RH = 94%]
Pressure (altimeter): 29.94 inches Hg (1014.0 mb)
Winds: from the NNW (330 degrees) at 3 MPH (3 knots; 1.5 m/s)
Visibility: 4 miles ( 6 km)
Ceiling: 1300 feet AGL
Clouds: broken clouds at 1300 feet AGL
Weather: TS  (thunderstorm)

METAR text: FKYS 181800Z 24006KT 210V290 6000 -TSRA BKN013 SCT016CB 21/21 Q1014 NOSIG
Conditions at: FKYS (YAOUNDE , CM) observed 1800 UTC 18 March 2019
Temperature: 21.0°C (70°F)
Dewpoint: 21.0°C (70°F) [RH = 100%]
Pressure (altimeter): 29.94 inches Hg (1014.0 mb)
Winds: from the WSW (240 degrees) at 7 MPH (6 knots; 3.1 m/s)
Visibility: 4 miles ( 6 km)
Ceiling: 1300 feet AGL
Clouds: broken clouds at 1300 feet AGL
scattered clouds at 1600 feet AGL
Weather: -TSRA  (light rain associated with thunderstorm(s))

METAR text: FKYS 181700Z VRB05KT 2500 TSRA BKN013 SCT016CB 23/20 Q1013 BECMG 3000 TSRA
Conditions at: FKYS (YAOUNDE , CM) observed 1700 UTC 18 March 2019
Temperature: 23.0°C (73°F)
Dewpoint: 20.0°C (68°F) [RH = 83%]
Pressure (altimeter): 29.91 inches Hg (1013.0 mb)
Winds: variable direction winds at 6 MPH (5 knots; 2.6 m/s)
Visibility: 1.55 miles (2.49 km)
Ceiling: 1300 feet AGL
Clouds: broken clouds at 1300 feet AGL
scattered clouds at 1600 feet AGL
Weather: TSRA  (rain associated with thunderstorm(s))

METAR text: FKYS 181600Z 33005KT 270V360 5000 -TSRA BKN016 FEW020CB 25/22 Q1010 BECMG 8000 -TSRA
Conditions at: FKYS (YAOUNDE , CM) observed 1600 UTC 18 March 2019
Temperature: 25.0°C (77°F)
Dewpoint: 22.0°C (72°F) [RH = 83%]
Pressure (altimeter): 29.82 inches Hg (1010.0 mb)
Winds: from the NNW (330 degrees) at 6 MPH (5 knots; 2.6 m/s)
Visibility: 3 miles ( 5 km)
Ceiling: 1600 feet AGL
Clouds: broken clouds at 1600 feet AGL
few clouds at 2000 feet AGL
Weather: -TSRA  (light rain associated with thunderstorm(s))

METAR text: FKYS 181500Z VRB01KT 8000 BKN020 FEW023CB 32/22 Q1011 TEMPO TS
Conditions at: FKYS (YAOUNDE , CM) observed 1500 UTC 18 March 2019
Temperature: 32.0°C (90°F)
Dewpoint: 22.0°C (72°F) [RH = 56%]
Pressure (altimeter): 29.85 inches Hg (1011.0 mb)
Winds: variable direction winds at 1 MPH (1 knots; 0.5 m/s)
Visibility: 5 miles ( 8 km)
Ceiling: 2000 feet AGL
Clouds: broken clouds at 2000 feet AGL
few clouds at 2300 feet AGL
Weather: no significant weather observed at this time

METAR text: FKYS 181400Z 21008KT 180V240 8000 BKN020 FEW023CB 30/23 Q1012 TEMPO TS
Conditions at: FKYS (YAOUNDE , CM) observed 1400 UTC 18 March 2019
Temperature: 30.0°C (86°F)
Dewpoint: 23.0°C (73°F) [RH = 66%]
Pressure (altimeter): 29.88 inches Hg (1012.0 mb)
Winds: from the SSW (210 degrees) at 9 MPH (8 knots; 4.1 m/s)
Visibility: 5 miles ( 8 km)
Ceiling: 2000 feet AGL
Clouds: broken clouds at 2000 feet AGL
few clouds at 2300 feet AGL
Weather: no significant weather observed at this time

METAR text: FKYS 181300Z VRB03KT 9999 BKN020 FEW023TCU 32/23 Q1013 NOSIG
Conditions at: FKYS (YAOUNDE , CM) observed 1300 UTC 18 March 2019
Temperature: 32.0°C (90°F)
Dewpoint: 23.0°C (73°F) [RH = 59%]
Pressure (altimeter): 29.91 inches Hg (1013.0 mb)
Winds: variable direction winds at 3 MPH (3 knots; 1.5 m/s)
Visibility: 6 or more miles (10+ km)
Ceiling: 2000 feet AGL
Clouds: broken clouds at 2000 feet AGL
few clouds at 2300 feet AGL
Weather: no significant weather observed at this time

METAR text: FKYS 181100Z 25003KT 200V280 9999 SCT020 30/22 Q1015 NOSIG
Conditions at: FKYS (YAOUNDE , CM) observed 1100 UTC 18 March 2019
Temperature: 30.0°C (86°F)
Dewpoint: 22.0°C (72°F) [RH = 62%]
Pressure (altimeter): 29.97 inches Hg (1015.0 mb)
Winds: from the WSW (250 degrees) at 3 MPH (3 knots; 1.5 m/s)
Visibility: 6 or more miles (10+ km)
Ceiling: at least 12,000 feet AGL
Clouds: scattered clouds at 2000 feet AGL
Weather: no significant weather observed at this time

METAR text: FKYS 181000Z 28005KT 230V320 9999 SCT020 28/24 Q1016 NOSIG
Conditions at: FKYS (YAOUNDE , CM) observed 1000 UTC 18 March 2019
Temperature: 28.0°C (82°F)
Dewpoint: 24.0°C (75°F) [RH = 79%]
Pressure (altimeter): 30.00 inches Hg (1016.0 mb)
Winds: from the W (280 degrees) at 6 MPH (5 knots; 2.6 m/s)
Visibility: 6 or more miles (10+ km)
Ceiling: at least 12,000 feet AGL
Clouds: scattered clouds at 2000 feet AGL
Weather: no significant weather observed at this time

METAR text: FKYS 180900Z VRB03KT 9999 SCT013 27/23 Q1017 NOSIG
Conditions at: FKYS (YAOUNDE , CM) observed 0900 UTC 18 March 2019
Temperature: 27.0°C (81°F)
Dewpoint: 23.0°C (73°F) [RH = 79%]
Pressure (altimeter): 30.03 inches Hg (1017.0 mb)
Winds: variable direction winds at 3 MPH (3 knots; 1.5 m/s)
Visibility: 6 or more miles (10+ km)
Ceiling: at least 12,000 feet AGL
Clouds: scattered clouds at 1300 feet AGL
Weather: no significant weather observed at this time

METAR text: FKYS 180800Z 23005KT 200V300 8000 BKN010 25/23 Q1017 BECMG BKN016
Conditions at: FKYS (YAOUNDE , CM) observed 0800 UTC 18 March 2019
Temperature: 25.0°C (77°F)
Dewpoint: 23.0°C (73°F) [RH = 89%]
Pressure (altimeter): 30.03 inches Hg (1017.0 mb)
Winds: from the SW (230 degrees) at 6 MPH (5 knots; 2.6 m/s)
Visibility: 5 miles ( 8 km)
Ceiling: 1000 feet AGL
Clouds: broken clouds at 1000 feet AGL
Weather: no significant weather observed at this time

METAR text: FKYS 180700Z 21004KT 180V240 8000 BKN006 23/22 Q1016 BECMG BKN010
Conditions at: FKYS (YAOUNDE , CM) observed 0700 UTC 18 March 2019
Temperature: 23.0°C (73°F)
Dewpoint: 22.0°C (72°F) [RH = 94%]
Pressure (altimeter): 30.00 inches Hg (1016.0 mb)
Winds: from the SSW (210 degrees) at 5 MPH (4 knots; 2.1 m/s)
Visibility: 5 miles ( 8 km)
Ceiling: 600 feet AGL
Clouds: broken clouds at 600 feet AGL
Weather: no significant weather observed at this time

METAR text: FKYS 180600Z VRB02KT 7000 FEW006 22/22 Q1015 TEMPO BKN006
Conditions at: FKYS (YAOUNDE , CM) observed 0600 UTC 18 March 2019
Temperature: 22.0°C (72°F)
Dewpoint: 22.0°C (72°F) [RH = 100%]
Pressure (altimeter): 29.97 inches Hg (1015.0 mb)
Winds: variable direction winds at 2 MPH (2 knots; 1.0 m/s)
Visibility: 4 miles ( 7 km)
Ceiling: at least 12,000 feet AGL
Clouds: few clouds at 600 feet AGL
Weather: no significant weather observed at this time

METAR text: FKYS 180500Z VRB01KT 8000 FEW006 22/22 Q1015 TEMPO 4000 BR BKN006
Conditions at: FKYS (YAOUNDE , CM) observed 0500 UTC 18 March 2019
Temperature: 22.0°C (72°F)
Dewpoint: 22.0°C (72°F) [RH = 100%]
Pressure (altimeter): 29.97 inches Hg (1015.0 mb)
Winds: variable direction winds at 1 MPH (1 knots; 0.5 m/s)
Visibility: 5 miles ( 8 km)
Ceiling: at least 12,000 feet AGL
Clouds: few clouds at 600 feet AGL
Weather: no significant weather observed at this time

METAR text: FKYS 180400Z VRB02KT 8000 FEW006 22/22 Q1014 NOSIG
Conditions at: FKYS (YAOUNDE , CM) observed 0400 UTC 18 March 2019
Temperature: 22.0°C (72°F)
Dewpoint: 22.0°C (72°F) [RH = 100%]
Pressure (altimeter): 29.94 inches Hg (1014.0 mb)
Winds: variable direction winds at 2 MPH (2 knots; 1.0 m/s)
Visibility: 5 miles ( 8 km)
Ceiling: at least 12,000 feet AGL
Clouds: few clouds at 600 feet AGL
Weather: no significant weather observed at this time

METAR text: FKYS 180300Z 30004KT 8000 FEW006 22/22 Q1014 NOSIG
Conditions at: FKYS (YAOUNDE , CM) observed 0300 UTC 18 March 2019
Temperature: 22.0°C (72°F)
Dewpoint: 22.0°C (72°F) [RH = 100%]
Pressure (altimeter): 29.94 inches Hg (1014.0 mb)
Winds: from the WNW (300 degrees) at 5 MPH (4 knots; 2.1 m/s)
Visibility: 5 miles ( 8 km)
Ceiling: at least 12,000 feet AGL
Clouds: few clouds at 600 feet AGL
Weather: no significant weather observed at this time

METAR text: FKYS 180200Z 27003KT 8000 SCT006 22/22 Q1015 NOSIG
Conditions at: FKYS (YAOUNDE , CM) observed 0200 UTC 18 March 2019
Temperature: 22.0°C (72°F)
Dewpoint: 22.0°C (72°F) [RH = 100%]
Pressure (altimeter): 29.97 inches Hg (1015.0 mb)
Winds: from the W (270 degrees) at 3 MPH (3 knots; 1.5 m/s)
Visibility: 5 miles ( 8 km)
Ceiling: at least 12,000 feet AGL
Clouds: scattered clouds at 600 feet AGL
Weather: no significant weather observed at this time

METAR text: FKYS 180100Z 24003KT 190V270 8000 SCT006 22/22 Q1015 NOSIG
Conditions at: FKYS (YAOUNDE , CM) observed 0100 UTC 18 March 2019
Temperature: 22.0°C (72°F)
Dewpoint: 22.0°C (72°F) [RH = 100%]
Pressure (altimeter): 29.97 inches Hg (1015.0 mb)
Winds: from the WSW (240 degrees) at 3 MPH (3 knots; 1.5 m/s)
Visibility: 5 miles ( 8 km)
Ceiling: at least 12,000 feet AGL
Clouds: scattered clouds at 600 feet AGL
Weather: no significant weather observed at this time

METAR text: FKYS 180000Z 24003KT 210V280 8000 SCT006 22/22 Q1014 NOSIG
Conditions at: FKYS (YAOUNDE , CM) observed 0000 UTC 18 March 2019
Temperature: 22.0°C (72°F)
Dewpoint: 22.0°C (72°F) [RH = 100%]
Pressure (altimeter): 29.94 inches Hg (1014.0 mb)
Winds: from the WSW (240 degrees) at 3 MPH (3 knots; 1.5 m/s)
Visibility: 5 miles ( 8 km)
Ceiling: at least 12,000 feet AGL
Clouds: scattered clouds at 600 feet AGL
Weather: no significant weather observed at this time

METAR text: FKYS 172300Z 28002KT 8000 TS SCT006 FEW020CB 22/21 Q1015 BECMG NSW
Conditions at: FKYS (YAOUNDE , CM) observed 2300 UTC 17 March 2019
Temperature: 22.0°C (72°F)
Dewpoint: 21.0°C (70°F) [RH = 94%]
Pressure (altimeter): 29.97 inches Hg (1015.0 mb)
Winds: from the W (280 degrees) at 2 MPH (2 knots; 1.0 m/s)
Visibility: 5 miles ( 8 km)
Ceiling: at least 12,000 feet AGL
Clouds: scattered clouds at 600 feet AGL
few clouds at 2000 feet AGL
Weather: TS  (thunderstorm)

METAR text: FKYS 172200Z VRB02KT 8000 TS FEW003 SCT006 FEW020CB 22/21 Q1016 NOSIG
Conditions at: FKYS (YAOUNDE , CM) observed 2200 UTC 17 March 2019
Temperature: 22.0°C (72°F)
Dewpoint: 21.0°C (70°F) [RH = 94%]
Pressure (altimeter): 30.00 inches Hg (1016.0 mb)
Winds: variable direction winds at 2 MPH (2 knots; 1.0 m/s)
Visibility: 5 miles ( 8 km)
Ceiling: at least 12,000 feet AGL
Clouds: few clouds at 300 feet AGL
scattered clouds at 600 feet AGL
few clouds at 2000 feet AGL
Weather: TS  (thunderstorm)

METAR text: FKYS 172100Z VRB02KT 8000 TS FEW003 SCT006 FEW020CB 22/21 Q1016 NOSIG
Conditions at: FKYS (YAOUNDE , CM) observed 2100 UTC 17 March 2019
Temperature: 22.0°C (72°F)
Dewpoint: 21.0°C (70°F) [RH = 94%]
Pressure (altimeter): 30.00 inches Hg (1016.0 mb)
Winds: variable direction winds at 2 MPH (2 knots; 1.0 m/s)
Visibility: 5 miles ( 8 km)
Ceiling: at least 12,000 feet AGL
Clouds: few clouds at 300 feet AGL
scattered clouds at 600 feet AGL
few clouds at 2000 feet AGL
Weather: TS  (thunderstorm)

METAR text: FKYS 172000Z 21007KT 4000 -TSRA BKN013 FEW020CB 23/22 Q1015 NOSIG
Conditions at: FKYS (YAOUNDE , CM) observed 2000 UTC 17 March 2019
Temperature: 23.0°C (73°F)
Dewpoint: 22.0°C (72°F) [RH = 94%]
Pressure (altimeter): 29.97 inches Hg (1015.0 mb)
Winds: from the SSW (210 degrees) at 8 MPH (7 knots; 3.6 m/s)
Visibility: 2.49 miles (4.01 km)
Ceiling: 1300 feet AGL
Clouds: broken clouds at 1300 feet AGL
few clouds at 2000 feet AGL
Weather: -TSRA  (light rain associated with thunderstorm(s))

METAR text: FKYS 171900Z 27006KT 8000 TS BKN013 FEW020CB 24/23 Q1014 NOSIG
Conditions at: FKYS (YAOUNDE , CM) observed 1900 UTC 17 March 2019
Temperature: 24.0°C (75°F)
Dewpoint: 23.0°C (73°F) [RH = 94%]
Pressure (altimeter): 29.94 inches Hg (1014.0 mb)
Winds: from the W (270 degrees) at 7 MPH (6 knots; 3.1 m/s)
Visibility: 5 miles ( 8 km)
Ceiling: 1300 feet AGL
Clouds: broken clouds at 1300 feet AGL
few clouds at 2000 feet AGL
Weather: TS  (thunderstorm)

METAR text: FKYS 171800Z 28006KT 190V330 8000 TS BKN016 FEW020CB 25/23 Q1014 TEMPO TSRA
Conditions at: FKYS (YAOUNDE , CM) observed 1800 UTC 17 March 2019
Temperature: 25.0°C (77°F)
Dewpoint: 23.0°C (73°F) [RH = 89%]
Pressure (altimeter): 29.94 inches Hg (1014.0 mb)
Winds: from the W (280 degrees) at 7 MPH (6 knots; 3.1 m/s)
Visibility: 5 miles ( 8 km)
Ceiling: 1600 feet AGL
Clouds: broken clouds at 1600 feet AGL
few clouds at 2000 feet AGL
Weather: TS  (thunderstorm)

Forecast for: FKYS (YAOUNDE , CM)
Text: TAF FKYS 190500Z 1906/2006 21006KT 6000 BKN006
Forecast period: 0600 to 0700 UTC 19 March 2019
Forecast type: FROM: standard forecast or significant change
Winds: from the SSW (210 degrees) at 7 MPH (6 knots; 3.1 m/s)
Visibility: 4 miles (6 km)
Ceiling: 600 feet AGL
Clouds: broken clouds at 600 feet AGL
Weather: no significant weather forecast for this period
Text: BECMG 1907/1909 BKN013
Forecast period: 0700 to 0900 UTC 19 March 2019
Forecast type: BECOMING: Conditions expected to become as follows by 0900 UTC 19 March 2019
Winds: from the SSW (210 degrees) at 7 MPH (6 knots; 3.1 m/s)
Visibility: 4 miles (6 km)
Ceiling: 1300 feet AGL
Clouds: broken clouds at 1300 feet AGL
Weather: no significant weather forecast for this period
Text: BECMG 1909/1911 BKN020
Forecast period: 0900 UTC 19 March 2019 to 0600 UTC 20 March 2019
Forecast type: BECOMING: Conditions expected to become as follows by 1100 UTC 19 March 2019
Winds: from the SSW (210 degrees) at 7 MPH (6 knots; 3.1 m/s)
Visibility: 4 miles (6 km)
Ceiling: 2000 feet AGL
Clouds: broken clouds at 2000 feet AGL
Weather: no significant weather forecast for this period
Text: TEMPO 1914/1922 TS
Forecast period: 1400 to 2200 UTC 19 March 2019
Forecast type: TEMPORARY: The following changes expected for less than half the time period
Visibility: missing
Ceiling: unknown
Clouds: missing
Weather: TS  (thunderstorm)
Text: PROB30 1916/1920 3000 TSRA
Forecast period: 1600 to 2000 UTC 19 March 2019
Forecast type: PROBABLE: 30 percent likelihood of the following during this time
Visibility: 1.86 miles (2.99 km)
Ceiling: unknown
Clouds: missing
Weather: TSRA  (rain associated with thunderstorm(s))